Time;durP1;ratioP1;P1;durP2;ratioP2;P2;SDS_P1;SDS_P2;PMS_P1;PMS_P2;Temp;Humidity;BMP_temperature;BMP_pressure;BME280_temperature;BME280_humidity;BME280_pressure;Samples;Min_cycle;Max_cycle;Signal;HPM_P1;HPM_P2
2021/09/06 00:04:12;;;;;;;;;;;15.90;99.90;;;14.99;82.86;96210.09;10401397;28;2037;-82
2021/09/06 00:09:15;;;;;;;;;;;15.90;99.90;;;14.93;82.94;96211.25;10406757;28;2043;-82
2021/09/06 00:14:18;;;;;;;;;;;15.90;99.90;;;14.87;83.50;96209.69;10407778;28;1962;-82
2021/09/06 00:19:23;;;;;;;;;;;15.80;99.90;;;14.88;83.52;96211.31;10389879;28;1983;-82
2021/09/06 00:24:26;;;;;;;;;;;15.80;99.90;;;14.76;84.22;96213.63;10416186;28;2221;-82
2021/09/06 00:29:29;;;;;;;;;;;15.80;99.90;;;14.64;84.95;96214.06;10401195;28;1875;-82
2021/09/06 00:34:32;;;;;;;;;;;15.70;99.90;;;14.58;84.85;96221.41;10393406;28;2049;-82
2021/09/06 00:39:35;;;;;;;;;;;15.70;99.90;;;14.55;85.34;96223.88;10420009;28;2042;-80
2021/09/06 00:44:38;;;;;;;;;;;15.60;99.90;;;14.25;86.92;96216.84;10415515;28;1833;-83
2021/09/06 00:49:41;;;;;;;;;;;15.50;99.90;;;14.42;86.31;96222.63;10403941;28;2124;-83
2021/09/06 00:54:44;;;;;;;;;;;15.30;99.90;;;14.48;85.56;96216.09;10411768;28;2160;-80
2021/09/06 00:59:47;;;;;;;;;;;15.30;99.90;;;14.44;85.72;96225.88;10397125;28;2029;-79
2021/09/06 01:04:50;;;;;;;;;;;15.40;99.90;;;14.43;85.51;96224.25;10403720;28;2132;-81
2021/09/06 01:09:53;;;;;;;;;;;15.30;99.90;;;14.48;85.36;96218.81;10393354;28;2118;-81
2021/09/06 01:15:16;;;;;;;;;;;15.40;99.90;;;14.47;85.36;96219.91;10398623;28;2099;-81
2021/09/06 01:20:39;;;;;;;;;;;15.40;99.90;;;14.49;85.34;96220.41;10400801;28;2039;-81
2021/09/06 01:25:58;;;;;;;;;;;15.40;99.90;;;14.37;85.99;96222.69;10439169;28;1943;-82
2021/09/06 01:31:11;;;;;;;;;;;15.40;99.90;;;14.37;86.13;96222.69;10434393;28;2218;-83
2021/09/06 01:36:14;;;;;;;;;;;15.30;99.90;;;14.45;85.75;96227.47;10447306;28;2098;-83
2021/09/06 01:41:17;;;;;;;;;;;15.30;99.90;;;14.41;85.46;96226.44;10459314;28;1636;-82
2021/09/06 01:46:20;;;;;;;;;;;15.30;99.90;;;14.37;85.56;96222.69;10411931;28;2103;-82
2021/09/06 01:51:23;;;;;;;;;;;15.30;99.90;;;14.34;85.84;96234.88;10407468;28;2071;-81
2021/09/06 01:56:26;;;;;;;;;;;15.30;99.90;;;14.33;85.96;96230.56;10408754;28;2139;-82
2021/09/06 02:01:29;;;;;;;;;;;15.30;99.90;;;14.20;86.83;96228.53;10411929;28;2108;-82
2021/09/06 02:06:32;;;;;;;;;;;15.20;99.90;;;14.24;86.44;96226.88;10408474;28;2073;-81
2021/09/06 02:11:35;;;;;;;;;;;15.20;99.90;;;14.24;86.22;96220.66;10400427;28;2059;-82
2021/09/06 02:16:38;;;;;;;;;;;15.20;99.90;;;14.16;86.56;96224.78;10396146;28;2276;-80
2021/09/06 02:21:41;;;;;;;;;;;15.10;99.90;;;14.26;86.07;96229.31;10401847;28;2196;-82
2021/09/06 02:26:44;;;;;;;;;;;15.10;99.90;;;14.19;85.81;96239.66;10421289;28;2133;-81
2021/09/06 02:31:47;;;;;;;;;;;15.20;99.90;;;14.03;86.98;96236.25;10427651;28;1575;-82
2021/09/06 02:36:49;;;;;;;;;;;15.00;99.90;;;13.93;87.53;96230.94;10418221;28;2126;-80
2021/09/06 02:41:58;;;;;;;;;;;15.00;99.90;;;13.87;87.82;96226.66;10413581;28;2124;-81
2021/09/06 02:47:01;;;;;;;;;;;14.90;99.90;;;13.81;88.28;96227.81;10401943;28;2155;-82
2021/09/06 02:52:04;;;;;;;;;;;14.80;99.90;;;13.79;88.15;96236.19;10403266;28;2175;-81
2021/09/06 02:57:07;;;;;;;;;;;14.70;99.90;;;13.87;87.93;96227.50;10434055;28;2026;-82
2021/09/06 03:02:09;;;;;;;;;;;14.80;99.90;;;13.91;87.41;96228.53;10391475;28;2072;-83
2021/09/06 03:07:13;;;;;;;;;;;14.80;99.90;;;13.70;88.34;96227.91;10394923;28;2126;-81
2021/09/06 03:12:16;;;;;;;;;;;14.80;99.90;;;13.66;88.77;96226.84;10405148;28;2137;-82
2021/09/06 03:17:18;;;;;;;;;;;14.70;99.90;;;13.68;88.98;96229.28;10408077;28;2156;-81
2021/09/06 03:22:22;;;;;;;;;;;14.60;99.90;;;13.50;89.47;96225.34;10414958;28;2076;-83
2021/09/06 03:27:25;;;;;;;;;;;14.60;99.90;;;13.39;90.04;96231.91;10398141;28;2092;-83
2021/09/06 03:32:27;;;;;;;;;;;14.40;99.90;;;13.56;89.44;96226.94;10404642;28;2128;-81
2021/09/06 03:37:30;;;;;;;;;;;14.40;99.90;;;13.54;89.01;96229.09;10396797;28;2109;-82
2021/09/06 03:42:37;;;;;;;;;;;14.50;99.90;;;13.42;89.90;96234.03;10405123;28;2139;-81
2021/09/06 03:47:40;;;;;;;;;;;14.50;99.90;;;13.29;90.41;96232.75;10401945;28;2237;-81
2021/09/06 03:52:42;;;;;;;;;;;14.40;99.90;;;13.40;89.68;96230.81;10401925;28;2165;-82
2021/09/06 03:57:45;;;;;;;;;;;14.30;99.90;;;13.29;89.82;96230.06;10399437;28;2128;-82
2021/09/06 04:02:48;;;;;;;;;;;14.40;99.90;;;13.27;90.37;96229.53;10400025;28;2185;-83
2021/09/06 04:07:52;;;;;;;;;;;14.30;99.90;;;13.36;89.47;96233.28;10400934;28;2162;-82
2021/09/06 04:12:55;;;;;;;;;;;14.30;99.90;;;13.13;91.21;96236.59;10407530;28;1992;-83
2021/09/06 04:17:57;;;;;;;;;;;14.30;99.90;;;13.22;90.76;96233.06;10405359;28;1964;-84
2021/09/06 04:23:00;;;;;;;;;;;14.10;99.90;;;13.22;90.48;96240.34;10398817;28;2117;-82
2021/09/06 04:28:03;;;;;;;;;;;14.20;99.90;;;13.22;90.81;96246.56;10388119;28;2137;-82
2021/09/06 04:33:06;;;;;;;;;;;14.20;99.90;;;13.18;90.32;96247.38;10406017;28;2152;-82
2021/09/06 04:38:09;;;;;;;;;;;14.20;99.90;;;12.97;91.67;96258.25;10416092;28;2069;-81
2021/09/06 04:43:12;;;;;;;;;;;14.10;99.90;;;12.86;91.62;96256.72;10416478;28;2209;-82
2021/09/06 04:48:15;;;;;;;;;;;14.00;99.90;;;12.94;91.82;96263.41;10424428;28;2120;-79
2021/09/06 04:53:18;;;;;;;;;;;13.90;99.90;;;13.05;90.81;96264.19;10408915;28;2142;-82
2021/09/06 04:58:21;;;;;;;;;;;13.90;99.90;;;13.18;89.88;96269.78;10420661;28;2089;-83
2021/09/06 05:03:24;;;;;;;;;;;14.00;99.90;;;13.19;89.57;96270.59;10402695;28;2037;-82
2021/09/06 05:08:27;;;;;;;;;;;14.10;99.90;;;13.40;88.35;96277.50;10410134;28;2093;-80
2021/09/06 05:13:30;;;;;;;;;;;14.30;99.90;;;13.70;87.30;96276.53;10416057;28;2228;-83
2021/09/06 05:18:33;;;;;;;;;;;14.40;99.90;;;13.56;87.50;96274.75;10455575;28;1990;-84
2021/09/06 05:23:36;;;;;;;;;;;14.60;99.90;;;13.66;87.37;96280.06;10447739;28;2017;-85
2021/09/06 05:28:39;;;;;;;;;;;14.60;99.90;;;14.02;85.63;96278.72;10425393;28;2192;-82
2021/09/06 05:33:42;;;;;;;;;;;14.80;99.90;;;14.10;85.23;96290.00;10422529;28;2080;-81
2021/09/06 05:38:45;;;;;;;;;;;15.00;99.90;;;13.90;86.82;96291.78;10428523;28;2215;-82
2021/09/06 05:43:47;;;;;;;;;;;14.90;99.90;;;14.44;83.34;96295.38;10436569;28;2151;-81
2021/09/06 05:48:50;;;;;;;;;;;15.10;99.90;;;14.31;84.45;96296.84;10437286;28;2042;-82
2021/09/06 05:53:53;;;;;;;;;;;15.20;99.90;;;14.23;85.06;96294.75;10436767;28;2060;-83
2021/09/06 05:58:56;;;;;;;;;;;15.20;99.90;;;14.37;84.86;96306.53;10416013;28;1910;-83
2021/09/06 06:03:59;;;;;;;;;;;15.20;99.90;;;14.48;84.77;96307.28;10412664;28;2013;-81
2021/09/06 06:09:02;;;;;;;;;;;15.30;99.90;;;14.70;83.01;96310.31;10415226;28;1709;-82
2021/09/06 06:14:05;;;;;;;;;;;15.40;99.90;;;15.06;81.16;96313.41;10416305;28;2119;-81
2021/09/06 06:19:08;;;;;;;;;;;15.70;99.90;;;15.10;80.92;96319.06;10420617;28;1981;-84
2021/09/06 06:24:11;;;;;;;;;;;15.90;99.90;;;15.40;80.36;96323.31;10426238;28;2045;-82
2021/09/06 06:29:15;;;;;;;;;;;16.00;99.90;;;15.53;77.18;96327.22;10441812;28;2211;-80
2021/09/06 06:34:18;;;;;;;;;;;16.20;99.90;;;15.60;77.62;96325.75;10421852;28;2085;-84
2021/09/06 06:39:21;;;;;;;;;;;16.40;99.90;;;15.79;76.66;96335.81;10431673;28;2038;-86
2021/09/06 06:44:24;;;;;;;;;;;16.50;99.90;;;15.94;75.78;96333.69;10428506;28;2132;-85
2021/09/06 06:49:27;;;;;;;;;;;16.60;99.90;;;15.60;76.95;96338.50;10424458;28;2239;-85
2021/09/06 06:54:30;;;;;;;;;;;16.70;99.90;;;15.88;76.21;96347.59;10437751;28;2056;-82
2021/09/06 06:59:33;;;;;;;;;;;16.60;99.90;;;16.00;76.56;96358.81;10442181;28;2045;-83
2021/09/06 07:04:36;;;;;;;;;;;16.70;99.90;;;16.33;75.27;96350.72;10439354;28;2154;-86
2021/09/06 07:09:39;;;;;;;;;;;16.90;99.90;;;16.44;74.22;96346.75;10435145;28;2075;-82
2021/09/06 07:14:42;;;;;;;;;;;17.10;99.90;;;16.71;73.27;96346.84;10431751;28;2452;-87
2021/09/06 07:19:45;;;;;;;;;;;17.30;99.90;;;16.56;73.94;96351.72;10443541;28;2224;-83
2021/09/06 07:24:53;;;;;;;;;;;17.40;99.90;;;16.91;73.19;96353.81;10440884;28;2023;-85
2021/09/06 07:29:56;;;;;;;;;;;17.40;99.90;;;16.47;74.58;96363.22;10438572;28;2057;-84
2021/09/06 07:34:59;;;;;;;;;;;17.60;99.90;;;17.05;72.88;96372.88;10439649;28;2101;-85
2021/09/06 07:40:02;;;;;;;;;;;17.60;99.90;;;17.28;71.74;96361.00;10434136;28;2292;-84
2021/09/06 07:45:06;;;;;;;;;;;17.80;99.90;;;17.43;70.92;96361.78;10433560;28;2145;-84
2021/09/06 07:50:11;;;;;;;;;;;18.00;99.90;;;17.49;71.32;96369.53;10414150;28;2154;-83
2021/09/06 07:55:14;;;;;;;;;;;18.20;99.90;;;17.49;70.59;96374.16;10421487;28;2143;-84
2021/09/06 08:00:17;;;;;;;;;;;18.30;99.90;;;17.31;72.15;96383.25;10424016;28;2089;-84
2021/09/06 08:05:20;;;;;;;;;;;18.10;99.90;;;17.31;72.14;96402.28;10421826;28;2228;-83
2021/09/06 08:10:28;;;;;;;;;;;18.30;99.90;;;17.55;70.71;96386.53;10420031;28;2078;-83
2021/09/06 08:15:31;;;;;;;;;;;18.40;99.90;;;17.71;70.59;96387.03;10410472;28;2087;-83
2021/09/06 08:20:34;;;;;;;;;;;18.50;99.90;;;18.00;68.83;96384.00;10406718;28;1981;-83
2021/09/06 08:25:37;;;;;;;;;;;18.60;99.90;;;18.18;68.36;96385.75;10401157;28;2088;-82
2021/09/06 08:30:40;;;;;;;;;;;18.90;99.90;;;18.62;66.37;96381.44;10403706;28;1907;-82
2021/09/06 08:35:43;;;;;;;;;;;19.20;99.90;;;18.82;66.40;96382.88;10407348;28;2080;-84
2021/09/06 08:40:46;;;;;;;;;;;19.40;99.90;;;18.63;67.42;96391.22;10401386;28;2096;-81
2021/09/06 08:45:49;;;;;;;;;;;19.50;99.90;;;18.57;67.77;96395.19;10395379;28;2025;-83
2021/09/06 08:50:52;;;;;;;;;;;19.40;99.90;;;18.62;68.62;96395.88;10403184;28;2041;-82
2021/09/06 08:55:55;;;;;;;;;;;19.30;99.90;;;18.75;67.90;96393.41;10412338;28;2109;-82
2021/09/06 09:01:15;;;;;;;;;;;19.40;99.90;;;19.35;65.26;96393.75;10414745;28;2018;-84
2021/09/06 09:06:19;;;;;;;;;;;19.90;99.90;;;19.43;64.20;96398.44;10418863;28;2128;-86
2021/09/06 09:11:22;;;;;;;;;;;20.10;99.90;;;19.52;63.65;96403.09;10423426;28;1479;-84
2021/09/06 09:16:25;;;;;;;;;;;20.40;99.90;;;19.03;65.49;96405.78;10423940;28;2071;-83
2021/09/06 09:21:28;;;;;;;;;;;20.10;99.90;;;19.49;64.90;96399.09;10413083;28;2044;-82
2021/09/06 09:26:31;;;;;;;;;;;20.20;99.90;;;19.95;62.05;96395.88;10409677;28;2238;-84
2021/09/06 09:31:34;;;;;;;;;;;20.50;99.90;;;19.85;62.07;96401.66;10411270;28;2266;-84
2021/09/06 09:36:37;;;;;;;;;;;20.60;99.90;;;19.68;62.00;96402.41;10448127;28;2159;-83
2021/09/06 09:41:43;;;;;;;;;;;20.60;99.90;;;20.23;61.29;96395.59;10412982;28;2164;-84
2021/09/06 09:46:46;;;;;;;;;;;20.80;99.90;;;19.64;62.28;96395.97;10406932;28;2106;-83
2021/09/06 09:51:50;;;;;;;;;;;20.90;99.90;;;19.92;61.83;96393.00;10415094;28;2159;-83
2021/09/06 09:56:53;;;;;;;;;;;20.80;99.90;;;19.83;62.45;96394.88;10422132;28;2152;-83
2021/09/06 10:01:56;;;;;;;;;;;20.80;99.90;;;20.25;62.79;96393.34;10410046;28;2224;-82
2021/09/06 10:06:59;;;;;;;;;;;20.90;99.90;;;19.92;63.70;96390.28;10413319;28;2208;-82
2021/09/06 10:12:02;;;;;;;;;;;20.80;99.90;;;19.91;64.02;96394.94;10419875;28;2247;-79
2021/09/06 10:17:05;;;;;;;;;;;21.00;99.90;;;20.04;64.78;96393.19;10424293;28;2175;-81
2021/09/06 10:22:11;;;;;;;;;;;20.90;99.90;;;20.33;63.62;96389.81;10411852;28;2128;-82
2021/09/06 10:27:15;;;;;;;;;;;21.10;99.90;;;20.51;63.15;96396.13;10413579;28;2248;-83
2021/09/06 10:32:18;;;;;;;;;;;21.30;99.90;;;20.45;63.06;96392.75;10424104;28;3875;-83
2021/09/06 10:37:21;;;;;;;;;;;21.40;99.90;;;20.68;62.58;96387.13;10407460;28;2560;-85
2021/09/06 10:42:24;;;;;;;;;;;21.40;99.90;;;20.69;62.80;96388.72;10413541;28;2212;-82
2021/09/06 10:47:27;;;;;;;;;;;21.50;99.90;;;20.71;63.59;96390.00;10419822;28;2198;-83
2021/09/06 10:52:30;;;;;;;;;;;21.40;99.90;;;20.95;62.81;96388.66;10415144;28;2186;-83
2021/09/06 10:57:33;;;;;;;;;;;21.80;99.90;;;20.78;62.50;96384.81;10409150;28;2205;-82
2021/09/06 11:02:36;;;;;;;;;;;21.70;99.90;;;20.57;62.66;96378.44;10409988;28;2143;-80
2021/09/06 11:07:40;;;;;;;;;;;21.60;99.90;;;20.98;61.18;96375.13;10419018;28;2440;-84
2021/09/06 11:12:43;;;;;;;;;;;21.70;99.90;;;20.99;62.35;96381.41;10412779;28;2106;-85
2021/09/06 11:17:46;;;;;;;;;;;21.80;99.90;;;20.97;61.24;96376.28;10423862;28;1888;-85
2021/09/06 11:22:49;;;;;;;;;;;21.90;99.90;;;20.83;61.85;96380.34;10466888;28;2264;-87
2021/09/06 11:27:52;;;;;;;;;;;21.80;99.90;;;21.08;60.96;96367.72;10449500;28;1921;-86
2021/09/06 11:32:55;;;;;;;;;;;21.80;99.90;;;20.98;61.55;96372.41;10454667;28;1741;-85
2021/09/06 11:37:59;;;;;;;;;;;21.90;99.90;;;21.12;61.29;96371.41;10438599;28;1891;-85
2021/09/06 11:43:02;;;;;;;;;;;22.00;99.90;;;21.18;60.03;96367.34;10430588;28;2165;-83
2021/09/06 11:48:05;;;;;;;;;;;22.00;99.90;;;21.17;60.29;96371.22;10446537;28;3646;-85
2021/09/06 11:53:08;;;;;;;;;;;22.00;99.90;;;21.05;60.47;96369.16;10450172;28;3576;-86
2021/09/06 11:58:11;;;;;;;;;;;22.00;99.90;;;21.47;58.88;96367.44;10431651;28;1936;-83
2021/09/06 12:03:14;;;;;;;;;;;22.20;99.90;;;21.41;59.70;96368.75;10416586;28;3559;-85
2021/09/06 12:08:17;;;;;;;;;;;22.30;99.90;;;21.55;58.24;96363.06;10412027;28;3579;-84
2021/09/06 12:13:20;;;;;;;;;;;22.40;99.90;;;21.80;57.85;96358.56;10417307;28;2178;-85
2021/09/06 12:18:23;;;;;;;;;;;22.50;99.90;;;22.02;56.43;96363.75;10412235;28;3469;-84
2021/09/06 12:23:30;;;;;;;;;;;22.80;99.90;;;21.63;55.54;96364.13;10404124;28;2081;-84
2021/09/06 12:28:35;;;;;;;;;;;22.60;99.90;;;22.10;54.29;96362.91;10405426;28;3535;-84
2021/09/06 12:33:39;;;;;;;;;;;22.80;99.90;;;21.93;53.14;96356.72;10418119;28;2389;-84
2021/09/06 12:38:42;;;;;;;;;;;22.80;99.90;;;21.97;52.93;96358.47;10410516;28;1972;-82
2021/09/06 12:43:45;;;;;;;;;;;22.80;99.90;;;22.02;51.64;96361.03;10401374;28;2139;-85
2021/09/06 12:48:47;;;;;;;;;;;22.80;99.90;;;21.90;49.07;96351.94;10410493;28;2714;-85
2021/09/06 12:53:50;;;;;;;;;;;22.80;99.90;;;22.28;48.81;96357.31;10410713;28;1808;-82
2021/09/06 12:58:54;;;;;;;;;;;23.00;99.90;;;22.51;48.29;96355.81;10396904;28;2119;-85
2021/09/06 13:03:57;;;;;;;;;;;23.10;99.90;;;22.24;46.86;96364.59;10408256;28;2061;-82
2021/09/06 13:09:00;;;;;;;;;;;23.20;99.90;;;22.25;47.47;96347.00;10429615;28;2144;-80
2021/09/06 13:14:05;;;;;;;;;;;23.10;99.90;;;22.13;47.47;96343.06;10420363;28;1998;-82
2021/09/06 13:19:08;;;;;;;;;;;23.20;99.90;;;22.45;45.93;96334.44;10433070;28;1943;-83
2021/09/06 13:24:11;;;;;;;;;;;23.20;99.90;;;22.31;45.29;96340.19;10423068;28;2043;-84
2021/09/06 13:29:15;;;;;;;;;;;23.20;99.90;;;22.34;45.86;96334.06;10411694;28;2204;-83
2021/09/06 13:34:18;;;;;;;;;;;23.20;99.90;;;22.36;45.78;96331.78;10416702;28;2320;-80
2021/09/06 13:39:21;;;;;;;;;;;23.10;99.90;;;22.43;44.72;96336.72;10398779;28;2309;-82
2021/09/06 13:44:24;;;;;;;;;;;23.20;99.90;;;22.43;43.62;96328.50;10428308;28;2120;-84
2021/09/06 13:49:27;;;;;;;;;;;23.30;99.90;;;22.43;41.79;96334.78;10418340;28;2186;-84
2021/09/06 13:54:30;;;;;;;;;;;23.30;99.90;;;22.45;40.97;96324.28;10433158;28;2084;-83
2021/09/06 13:59:33;;;;;;;;;;;23.30;99.90;;;22.50;40.90;96337.78;10442911;28;2002;-84
2021/09/06 14:04:38;;;;;;;;;;;23.40;99.90;;;22.54;40.07;96333.22;10410742;28;2057;-85
2021/09/06 14:09:41;;;;;;;;;;;23.40;99.90;;;22.65;38.66;96334.41;10416702;28;3591;-88
2021/09/06 14:14:44;;;;;;;;;;;23.50;99.90;;;22.60;39.74;96331.09;10436556;28;4014;-85
2021/09/06 14:19:47;;;;;;;;;;;23.40;99.90;;;22.33;39.90;96335.19;10412994;28;2266;-85
2021/09/06 14:24:50;;;;;;;;;;;23.20;99.90;;;22.40;40.52;96335.47;10415188;28;2061;-85
2021/09/06 14:29:54;;;;;;;;;;;23.20;99.90;;;22.37;40.01;96330.66;10424808;28;2774;-84
2021/09/06 14:34:57;;;;;;;;;;;23.20;99.90;;;22.45;39.55;96337.19;10420031;28;2439;-85
2021/09/06 14:40:00;;;;;;;;;;;23.30;99.90;;;22.53;39.30;96326.16;10407714;28;1906;-85
2021/09/06 14:45:03;;;;;;;;;;;23.30;99.90;;;22.29;38.67;96339.75;10412887;28;2094;-84
2021/09/06 14:50:07;;;;;;;;;;;23.30;99.90;;;22.20;38.09;96334.31;10406986;28;3270;-84
2021/09/06 14:55:10;;;;;;;;;;;23.20;99.90;;;22.28;37.66;96330.72;10414460;28;3124;-85
2021/09/06 15:00:13;;;;;;;;;;;23.10;99.90;;;22.41;37.47;96334.31;10407452;28;2096;-85
2021/09/06 15:05:16;;;;;;;;;;;23.20;99.90;;;22.20;36.02;96331.56;10409444;28;1891;-85
2021/09/06 15:10:19;;;;;;;;;;;23.20;98.20;;;22.21;37.78;96321.47;10402335;28;2858;-84
2021/09/06 15:15:22;;;;;;;;;;;23.10;99.90;;;22.15;36.73;96326.34;10412076;28;1974;-85
2021/09/06 15:20:25;;;;;;;;;;;23.00;97.60;;;22.16;38.13;96322.44;10405528;28;2048;-81
2021/09/06 15:25:28;;;;;;;;;;;23.00;99.30;;;21.99;40.49;96319.81;10421847;28;1980;-83
2021/09/06 15:30:31;;;;;;;;;;;23.00;99.90;;;21.94;41.31;96309.84;10408062;28;2061;-87
2021/09/06 15:35:34;;;;;;;;;;;22.90;99.90;;;21.83;40.94;96314.13;10409651;28;2009;-84
2021/09/06 15:40:37;;;;;;;;;;;22.80;99.90;;;21.75;39.84;96306.78;10407206;28;2001;-81
2021/09/06 15:45:40;;;;;;;;;;;22.70;99.90;;;21.73;38.90;96307.09;10415079;28;2038;-80
2021/09/06 15:50:43;;;;;;;;;;;22.60;99.50;;;21.66;39.09;96306.03;10413951;28;3263;-82
2021/09/06 15:55:46;;;;;;;;;;;22.60;99.30;;;21.59;39.97;96306.56;10411760;28;2035;-84
2021/09/06 16:00:51;;;;;;;;;;;22.50;99.90;;;21.53;40.36;96305.94;10426299;28;1894;-84
2021/09/06 16:05:54;;;;;;;;;;;22.40;99.90;;;21.44;41.22;96310.69;10424546;28;1860;-82
2021/09/06 16:10:57;;;;;;;;;;;22.40;99.90;;;21.33;41.83;96309.44;10418751;28;2331;-82
2021/09/06 16:16:00;;;;;;;;;;;22.30;99.90;;;21.36;41.47;96305.25;10419769;28;1770;-82
2021/09/06 16:21:03;;;;;;;;;;;22.20;99.90;;;21.31;41.50;96300.75;10427689;28;1994;-82
2021/09/06 16:26:06;;;;;;;;;;;22.20;99.90;;;21.21;41.66;96309.31;10407350;28;2132;-82
2021/09/06 16:31:09;;;;;;;;;;;22.20;99.90;;;21.11;40.73;96315.13;10414622;28;1986;-81
2021/09/06 16:36:12;;;;;;;;;;;22.10;99.80;;;21.03;39.72;96314.84;10430035;28;2074;-83
2021/09/06 16:41:15;;;;;;;;;;;21.90;98.50;;;20.98;39.15;96323.22;10405428;28;2209;-83
2021/09/06 16:46:18;;;;;;;;;;;21.90;97.60;;;20.81;40.57;96317.03;10398031;28;2026;-83
2021/09/06 16:51:21;;;;;;;;;;;21.80;98.60;;;20.63;40.85;96316.25;10410745;28;1963;-84
2021/09/06 16:56:25;;;;;;;;;;;21.70;98.90;;;20.44;41.62;96324.78;10419169;28;2026;-83
2021/09/06 17:01:27;;;;;;;;;;;21.50;99.40;;;20.48;41.81;96321.09;10416985;28;2069;-82
2021/09/06 17:06:31;;;;;;;;;;;21.40;99.80;;;20.39;42.40;96316.75;10421376;28;2076;-83
2021/09/06 17:11:36;;;;;;;;;;;21.40;99.90;;;20.09;43.11;96313.84;10421062;28;2084;-82
2021/09/06 17:16:38;;;;;;;;;;;21.20;99.90;;;20.01;43.26;96319.31;10436881;28;2165;-84
2021/09/06 17:21:46;;;;;;;;;;;21.00;99.90;;;19.68;44.20;96325.22;10421969;28;1991;-83
2021/09/06 17:26:49;;;;;;;;;;;20.80;99.90;;;19.52;44.67;96319.38;10420828;28;2088;-83
2021/09/06 17:31:51;;;;;;;;;;;20.60;99.90;;;19.24;45.81;96313.38;10424201;28;2033;-83
2021/09/06 17:36:54;;;;;;;;;;;20.40;99.90;;;19.10;46.62;96318.16;10410580;28;1856;-85
2021/09/06 17:41:59;;;;;;;;;;;20.20;99.90;;;18.87;47.52;96318.19;10408267;28;1980;-85
2021/09/06 17:47:03;;;;;;;;;;;20.00;99.90;;;18.76;48.36;96318.78;10406222;28;1765;-82
2021/09/06 17:52:06;;;;;;;;;;;19.90;99.90;;;18.43;49.24;96327.19;10408821;28;2150;-83
2021/09/06 17:57:09;;;;;;;;;;;19.70;99.90;;;18.22;50.13;96345.94;10416908;28;2181;-84
2021/09/06 18:02:12;;;;;;;;;;;19.40;99.90;;;17.95;51.23;96346.03;10424286;28;2129;-83
2021/09/06 18:07:15;;;;;;;;;;;19.20;99.90;;;17.83;51.66;96347.38;10420238;28;2025;-84
2021/09/06 18:12:18;;;;;;;;;;;19.00;99.90;;;17.62;53.35;96354.31;10407495;28;2102;-82
2021/09/06 18:17:21;;;;;;;;;;;18.90;99.90;;;17.45;53.97;96351.44;10403498;28;2125;-83
2021/09/06 18:22:24;;;;;;;;;;;18.80;99.90;;;17.40;55.17;96360.50;10411556;28;2053;-83
2021/09/06 18:27:27;;;;;;;;;;;18.70;99.90;;;17.24;56.63;96370.88;10415882;28;2009;-84
2021/09/06 18:38:35;;;;;;;;;;;18.40;99.90;;;17.02;57.68;96379.69;10287655;28;3326;-74
2021/09/06 18:43:38;;;;;;;;;;;18.30;99.90;;;16.87;59.73;96382.69;10312972;28;2109;-73
2021/09/06 18:48:41;;;;;;;;;;;18.10;99.90;;;16.75;59.78;96385.88;10306609;28;2070;-75
2021/09/06 18:53:44;;;;;;;;;;;18.00;99.90;;;16.68;61.39;96390.06;10315142;28;2145;-75
2021/09/06 18:58:47;;;;;;;;;;;17.90;99.90;;;16.52;61.28;96392.19;10314319;28;2042;-75
2021/09/06 19:03:49;;;;;;;;;;;17.70;99.90;;;16.45;62.09;96391.78;10308000;28;2097;-75
2021/09/06 19:08:52;;;;;;;;;;;17.70;99.90;;;16.63;63.44;96385.50;10312720;28;2259;-76
2021/09/06 19:13:56;;;;;;;;;;;17.60;99.90;;;16.80;62.35;96397.75;10312848;28;2316;-74
2021/09/06 19:18:59;;;;;;;;;;;17.70;99.90;;;16.80;63.11;96392.31;10304726;28;2366;-74
2021/09/06 19:24:03;;;;;;;;;;;17.80;99.90;;;16.73;61.84;96396.22;10319249;28;2524;-75
2021/09/06 19:29:05;;;;;;;;;;;17.80;99.90;;;16.73;63.41;96398.94;10311147;28;2340;-76
2021/09/06 19:34:08;;;;;;;;;;;17.70;99.90;;;16.65;64.03;96393.34;10314766;28;2269;-75
2021/09/06 19:39:12;;;;;;;;;;;17.70;99.90;;;16.37;63.63;96401.38;10301069;28;2178;-77
2021/09/06 19:44:14;;;;;;;;;;;17.60;99.90;;;16.27;65.48;96400.72;10317441;28;2104;-76
2021/09/06 19:49:18;;;;;;;;;;;17.40;99.90;;;16.35;65.86;96402.78;10326653;28;2123;-77
2021/09/06 19:54:21;;;;;;;;;;;17.30;99.90;;;16.26;66.15;96407.25;10315566;28;2182;-74
2021/09/06 19:59:24;;;;;;;;;;;17.30;99.90;;;16.08;67.54;96409.69;10312284;28;2132;-77
2021/09/06 20:04:28;;;;;;;;;;;17.10;99.90;;;16.01;68.63;96409.25;10317200;28;2283;-76
2021/09/06 20:09:32;;;;;;;;;;;17.00;99.90;;;16.16;68.73;96406.31;10312355;28;2208;-76
2021/09/06 20:14:35;;;;;;;;;;;17.10;99.90;;;16.25;68.17;96408.38;10310759;28;2060;-76
2021/09/06 20:19:38;;;;;;;;;;;17.20;99.90;;;16.20;68.71;96411.94;10311690;28;2144;-77
2021/09/06 20:24:41;;;;;;;;;;;17.30;99.90;;;16.32;68.76;96419.66;10312210;28;2237;-75
2021/09/06 20:29:44;;;;;;;;;;;17.20;99.90;;;16.28;69.18;96407.75;10309158;28;2171;-77
2021/09/06 20:34:47;;;;;;;;;;;17.20;99.90;;;16.28;69.47;96415.91;10315132;28;2116;-77
2021/09/06 20:39:51;;;;;;;;;;;17.20;99.90;;;16.27;69.60;96417.00;10310211;28;2117;-76
2021/09/06 20:44:54;;;;;;;;;;;17.20;99.90;;;16.33;70.31;96418.53;10306523;28;2074;-75
2021/09/06 20:49:57;;;;;;;;;;;17.10;99.90;;;16.21;70.76;96416.28;10309323;28;1952;-76
2021/09/06 20:55:02;;;;;;;;;;;17.10;99.90;;;16.37;70.67;96414.16;10306722;28;2133;-76
2021/09/06 21:00:05;;;;;;;;;;;17.20;99.90;;;16.39;69.96;96410.03;10313803;28;2082;-75
2021/09/06 21:05:08;;;;;;;;;;;17.20;99.90;;;16.26;71.23;96416.19;10309290;28;1888;-77
2021/09/06 21:10:11;;;;;;;;;;;17.10;99.90;;;16.20;71.70;96411.94;10314147;28;2070;-75
2021/09/06 21:15:14;;;;;;;;;;;17.10;99.90;;;16.18;71.52;96414.16;10304818;28;1585;-76
2021/09/06 21:20:17;;;;;;;;;;;17.00;99.90;;;16.10;72.15;96402.06;10310645;28;1985;-74
2021/09/06 21:25:20;;;;;;;;;;;17.00;99.90;;;16.02;72.88;96410.03;10314202;28;2047;-75
2021/09/06 21:30:23;;;;;;;;;;;16.90;99.90;;;15.90;73.42;96410.47;10313361;28;2139;-75
2021/09/06 21:35:26;;;;;;;;;;;16.90;99.90;;;15.89;73.87;96411.56;10311744;28;1915;-75
2021/09/06 21:40:29;;;;;;;;;;;16.70;99.90;;;15.89;74.78;96422.41;10306626;28;1983;-76
2021/09/06 21:45:32;;;;;;;;;;;16.70;99.90;;;15.87;75.27;96427.34;10306319;28;2338;-75
2021/09/06 21:50:35;;;;;;;;;;;16.70;99.90;;;15.88;75.25;96415.38;10315842;28;1936;-75
2021/09/06 21:55:38;;;;;;;;;;;16.70;99.90;;;15.76;75.45;96418.50;10319962;28;1894;-74
2021/09/06 22:00:41;;;;;;;;;;;16.70;99.90;;;15.77;76.47;96420.13;10316434;28;1995;-76
2021/09/06 22:05:44;;;;;;;;;;;16.60;99.90;;;15.76;76.96;96415.81;10316611;28;2178;-76
2021/09/06 22:10:46;;;;;;;;;;;16.60;99.90;;;15.75;77.03;96413.38;10314307;28;2059;-76
2021/09/06 22:15:49;;;;;;;;;;;16.60;99.90;;;15.70;78.16;96419.69;10325608;28;1840;-76
2021/09/06 22:20:52;;;;;;;;;;;16.50;99.90;;;15.64;78.69;96418.94;10324541;28;2182;-76
2021/09/06 22:25:55;;;;;;;;;;;16.40;99.90;;;15.56;78.99;96414.13;10302272;28;2218;-76
2021/09/06 22:30:58;;;;;;;;;;;16.50;99.90;;;15.52;79.68;96418.50;10324969;28;2065;-76
2021/09/06 22:36:00;;;;;;;;;;;16.30;99.90;;;15.54;79.87;96423.66;10317488;28;2070;-76
2021/09/06 22:41:04;;;;;;;;;;;16.30;99.90;;;15.49;80.06;96413.66;10329936;28;2046;-76
2021/09/06 22:46:06;;;;;;;;;;;16.30;99.90;;;15.48;79.88;96414.78;10319516;28;2074;-76
2021/09/06 22:51:09;;;;;;;;;;;16.30;99.90;;;15.43;80.46;96419.44;10319403;28;2059;-75
2021/09/06 22:56:12;;;;;;;;;;;16.40;99.90;;;15.34;80.97;96420.09;10299969;28;2360;-76
2021/09/06 23:01:15;;;;;;;;;;;16.20;99.90;;;15.28;81.14;96423.13;10315789;28;2504;-76
2021/09/06 23:06:18;;;;;;;;;;;16.20;99.90;;;15.27;81.44;96416.91;10316349;28;1735;-76
2021/09/06 23:11:21;;;;;;;;;;;16.10;99.90;;;15.27;81.64;96416.06;10340721;28;2118;-76
2021/09/06 23:16:24;;;;;;;;;;;16.10;99.90;;;15.29;81.12;96413.91;10306272;28;1798;-76
2021/09/06 23:21:27;;;;;;;;;;;16.10;99.90;;;15.26;81.24;96403.63;10326840;28;2113;-77